sensor_id;sensor_type;location;lat;lon;timestamp;pressure;altitude;pressure_sealevel;temperature;humidity
30714;BME280;17465;47.934;33.430;2023-08-20T00:02:08;57669.34;;;-140.43;68.59
30714;BME280;17465;47.934;33.430;2023-08-20T00:04:38;57640.75;;;-140.43;68.55
30714;BME280;17465;47.934;33.430;2023-08-20T00:07:11;57670.41;;;-140.43;68.59
30714;BME280;17465;47.934;33.430;2023-08-20T00:09:42;57678.88;;;-140.43;68.28
30714;BME280;17465;47.934;33.430;2023-08-20T00:12:18;57667.23;;;-140.43;68.86
30714;BME280;17465;47.934;33.430;2023-08-20T00:15:10;57664.05;;;-140.43;68.47
30714;BME280;17465;47.934;33.430;2023-08-20T00:17:43;57661.93;;;-140.43;69.78
30714;BME280;17465;47.934;33.430;2023-08-20T00:20:14;57661.93;;;-140.43;69.78
30714;BME280;17465;47.934;33.430;2023-08-20T00:22:45;57644.98;;;-140.43;68.69
30714;BME280;17465;47.934;33.430;2023-08-20T00:25:17;57638.63;;;-140.43;69.91
30714;BME280;17465;47.934;33.430;2023-08-20T00:27:48;57655.58;;;-140.43;69.33
30714;BME280;17465;47.934;33.430;2023-08-20T00:30:21;57642.87;;;-140.43;69.29
30714;BME280;17465;47.934;33.430;2023-08-20T00:32:51;57633.34;;;-140.43;69.63
30714;BME280;17465;47.934;33.430;2023-08-20T00:35:22;57634.39;;;-140.43;69.42
30714;BME280;17465;47.934;33.430;2023-08-20T00:37:57;57642.87;;;-140.43;70.04
30714;BME280;17465;47.934;33.430;2023-08-20T00:40:27;57661.93;;;-140.43;69.89
30714;BME280;17465;47.934;33.430;2023-08-20T00:43:04;57664.05;;;-140.43;70.75
30714;BME280;17465;47.934;33.430;2023-08-20T00:45:34;57652.40;;;-140.43;68.38
30714;BME280;17465;47.934;33.430;2023-08-20T00:48:06;57636.51;;;-140.43;67.39
30714;BME280;17465;47.934;33.430;2023-08-20T00:50:36;57646.04;;;-140.43;67.78
30714;BME280;17465;47.934;33.430;2023-08-20T00:53:09;57651.34;;;-140.43;69.13
30714;BME280;17465;47.934;33.430;2023-08-20T00:56:00;57634.39;;;-140.43;69.71
30714;BME280;17465;47.934;33.430;2023-08-20T00:58:16;57649.22;;;-140.43;69.84
30714;BME280;17465;47.934;33.430;2023-08-20T01:00:47;57630.16;;;-140.43;69.75
30714;BME280;17465;47.934;33.430;2023-08-20T01:03:17;57606.86;;;-140.43;69.70
30714;BME280;17465;47.934;33.430;2023-08-20T01:05:50;57625.92;;;-140.43;70.40
30714;BME280;17465;47.934;33.430;2023-08-20T01:08:33;57625.92;;;-140.43;70.40
30714;BME280;17465;47.934;33.430;2023-08-20T01:11:03;57615.33;;;-140.43;69.42
30714;BME280;17465;47.934;33.430;2023-08-20T01:13:36;57619.57;;;-140.43;69.33
30714;BME280;17465;47.934;33.430;2023-08-20T01:16:06;57608.98;;;-140.43;69.88
30714;BME280;17465;47.934;33.430;2023-08-20T01:18:40;57612.15;;;-140.43;70.62
30714;BME280;17465;47.934;33.430;2023-08-20T01:21:30;57602.62;;;-140.43;70.10
30714;BME280;17465;47.934;33.430;2023-08-20T01:29:39;57611.09;;;-140.43;70.46
30714;BME280;17465;47.934;33.430;2023-08-20T01:32:11;57617.45;;;-140.43;69.20
30714;BME280;17465;47.934;33.430;2023-08-20T01:34:42;57590.97;;;-140.43;69.33
30714;BME280;17465;47.934;33.430;2023-08-20T01:37:19;57598.38;;;-140.43;68.52
30714;BME280;17465;47.934;33.430;2023-08-20T01:39:44;57601.56;;;-140.43;68.75
30714;BME280;17465;47.934;33.430;2023-08-20T01:42:16;57601.56;;;-140.43;68.75
30714;BME280;17465;47.934;33.430;2023-08-20T01:44:46;57613.21;;;-140.43;69.30
30714;BME280;17465;47.934;33.430;2023-08-20T01:47:17;57577.20;;;-140.43;68.93
30714;BME280;17465;47.934;33.430;2023-08-20T01:49:47;57577.20;;;-140.43;68.93
30714;BME280;17465;47.934;33.430;2023-08-20T01:52:18;57586.73;;;-140.43;69.73
30714;BME280;17465;47.934;33.430;2023-08-20T01:54:49;57586.73;;;-140.43;69.73
30714;BME280;17465;47.934;33.430;2023-08-20T01:57:19;57617.45;;;-140.43;70.51
30714;BME280;17465;47.934;33.430;2023-08-20T01:59:49;57616.39;;;-140.43;71.03
30714;BME280;17465;47.934;33.430;2023-08-20T02:02:20;57564.49;;;-140.43;70.65
30714;BME280;17465;47.934;33.430;2023-08-20T02:04:52;57564.49;;;-140.43;70.65
30714;BME280;17465;47.934;33.430;2023-08-20T02:07:22;57598.38;;;-140.43;70.96
30714;BME280;17465;47.934;33.430;2023-08-20T02:09:53;57580.37;;;-140.43;71.43
30714;BME280;17465;47.934;33.430;2023-08-20T02:12:26;57601.56;;;-140.43;70.59
30714;BME280;17465;47.934;33.430;2023-08-20T02:14:59;57601.56;;;-140.43;70.59
30714;BME280;17465;47.934;33.430;2023-08-20T02:17:35;57587.79;;;-140.43;70.48
30714;BME280;17465;47.934;33.430;2023-08-20T02:22:58;57598.38;;;-140.43;71.72
30714;BME280;17465;47.934;33.430;2023-08-20T02:25:28;57574.02;;;-140.43;72.82
30714;BME280;17465;47.934;33.430;2023-08-20T02:27:58;57608.98;;;-140.43;73.31
30714;BME280;17465;47.934;33.430;2023-08-20T02:30:29;57608.98;;;-140.43;73.31
30714;BME280;17465;47.934;33.430;2023-08-20T02:32:59;57571.90;;;-140.43;73.19
30714;BME280;17465;47.934;33.430;2023-08-20T02:35:31;57600.50;;;-140.43;72.58
30714;BME280;17465;47.934;33.430;2023-08-20T02:38:01;57557.08;;;-140.43;73.37
30714;BME280;17465;47.934;33.430;2023-08-20T02:40:39;57571.90;;;-140.43;74.20
30714;BME280;17465;47.934;33.430;2023-08-20T02:43:10;57557.08;;;-140.43;73.86
30714;BME280;17465;47.934;33.430;2023-08-20T02:45:41;57569.79;;;-140.43;72.60
30714;BME280;17465;47.934;33.430;2023-08-20T02:48:14;57584.61;;;-140.43;72.70
30714;BME280;17465;47.934;33.430;2023-08-20T02:50:55;57586.73;;;-140.43;71.88
30714;BME280;17465;47.934;33.430;2023-08-20T02:53:23;57585.67;;;-140.43;72.72
30714;BME280;17465;47.934;33.430;2023-08-20T02:55:54;57560.25;;;-140.43;72.01
30714;BME280;17465;47.934;33.430;2023-08-20T02:58:24;57584.61;;;-140.43;73.95
30714;BME280;17465;47.934;33.430;2023-08-20T03:00:58;57589.91;;;-140.43;73.92
30714;BME280;17465;47.934;33.430;2023-08-20T03:03:28;57589.91;;;-140.43;73.92
30714;BME280;17465;47.934;33.430;2023-08-20T03:05:59;57568.73;;;-140.43;74.03
30714;BME280;17465;47.934;33.430;2023-08-20T03:08:29;57579.32;;;-140.43;72.42
30714;BME280;17465;47.934;33.430;2023-08-20T03:11:00;57598.38;;;-140.43;71.91
30714;BME280;17465;47.934;33.430;2023-08-20T03:13:30;57582.50;;;-140.43;72.38
30714;BME280;17465;47.934;33.430;2023-08-20T03:16:01;57614.27;;;-140.43;72.28
30714;BME280;17465;47.934;33.430;2023-08-20T03:18:31;57595.21;;;-140.43;73.11
30714;BME280;17465;47.934;33.430;2023-08-20T03:21:02;57597.32;;;-140.43;73.79
30714;BME280;17465;47.934;33.430;2023-08-20T03:23:33;57597.32;;;-140.43;73.79
30714;BME280;17465;47.934;33.430;2023-08-20T03:26:03;57571.90;;;-140.43;74.16
30714;BME280;17465;47.934;33.430;2023-08-20T03:28:34;57561.31;;;-140.43;71.48
30714;BME280;17465;47.934;33.430;2023-08-20T03:31:08;57601.56;;;-140.43;72.07
30714;BME280;17465;47.934;33.430;2023-08-20T03:33:40;57601.56;;;-140.43;72.07
30714;BME280;17465;47.934;33.430;2023-08-20T03:36:11;57585.67;;;-140.43;72.51
30714;BME280;17465;47.934;33.430;2023-08-20T03:38:58;57603.68;;;-140.43;73.84
30714;BME280;17465;47.934;33.430;2023-08-20T03:41:28;57596.27;;;-140.43;73.04
30714;BME280;17465;47.934;33.430;2023-08-20T03:43:58;57554.96;;;-140.43;72.11
30714;BME280;17465;47.934;33.430;2023-08-20T03:46:29;57554.96;;;-140.43;72.11
30714;BME280;17465;47.934;33.430;2023-08-20T03:48:59;57622.74;;;-140.43;72.48
30714;BME280;17465;47.934;33.430;2023-08-20T03:51:30;57564.49;;;-140.43;72.85
30714;BME280;17465;47.934;33.430;2023-08-20T03:54:01;57589.91;;;-140.43;72.96
30714;BME280;17465;47.934;33.430;2023-08-20T03:56:35;57590.97;;;-140.43;72.74
30714;BME280;17465;47.934;33.430;2023-08-20T03:59:05;57579.32;;;-140.43;73.51
30714;BME280;17465;47.934;33.430;2023-08-20T04:01:38;57579.32;;;-140.43;73.51
30714;BME280;17465;47.934;33.430;2023-08-20T04:04:09;57603.68;;;-140.43;72.60
30714;BME280;17465;47.934;33.430;2023-08-20T04:06:41;57603.68;;;-140.43;72.60
30714;BME280;17465;47.934;33.430;2023-08-20T04:09:23;57620.62;;;-140.43;71.92
30714;BME280;17465;47.934;33.430;2023-08-20T04:11:57;57588.85;;;-140.43;72.76
30714;BME280;17465;47.934;33.430;2023-08-20T04:14:27;57597.32;;;-140.43;73.58
30714;BME280;17465;47.934;33.430;2023-08-20T04:16:58;57615.33;;;-140.43;72.67
30714;BME280;17465;47.934;33.430;2023-08-20T04:19:28;57601.56;;;-140.43;72.25
30714;BME280;17465;47.934;33.430;2023-08-20T04:21:58;57616.39;;;-140.43;71.48
30714;BME280;17465;47.934;33.430;2023-08-20T04:24:30;57616.39;;;-140.43;71.48
30714;BME280;17465;47.934;33.430;2023-08-20T04:27:03;57607.91;;;-140.43;71.50
30714;BME280;17465;47.934;33.430;2023-08-20T04:29:38;57652.40;;;-140.43;70.35
30714;BME280;17465;47.934;33.430;2023-08-20T04:32:08;57640.75;;;-140.43;70.65
30714;BME280;17465;47.934;33.430;2023-08-20T04:34:41;57626.98;;;-140.43;71.16
30714;BME280;17465;47.934;33.430;2023-08-20T04:37:18;57620.62;;;-140.43;70.23
30714;BME280;17465;47.934;33.430;2023-08-20T04:39:50;57639.69;;;-140.43;69.69
30714;BME280;17465;47.934;33.430;2023-08-20T04:42:21;57636.51;;;-140.43;66.79
30714;BME280;17465;47.934;33.430;2023-08-20T04:44:58;57657.70;;;-140.43;69.02
30714;BME280;17465;47.934;33.430;2023-08-20T04:47:30;57657.70;;;-140.43;69.02
30714;BME280;17465;47.934;33.430;2023-08-20T04:50:05;57642.87;;;-140.43;68.24
30714;BME280;17465;47.934;33.430;2023-08-20T04:52:37;57706.42;;;-140.43;66.29
30714;BME280;17465;47.934;33.430;2023-08-20T04:55:07;57706.42;;;-140.43;66.29
30714;BME280;17465;47.934;33.430;2023-08-20T04:57:38;57687.35;;;-140.43;64.16
30714;BME280;17465;47.934;33.430;2023-08-20T05:02:59;57701.12;;;-140.43;65.60
30714;BME280;17465;47.934;33.430;2023-08-20T05:05:30;57731.84;;;-140.43;65.43
30714;BME280;17465;47.934;33.430;2023-08-20T05:08:00;57714.89;;;-140.43;66.67
30714;BME280;17465;47.934;33.430;2023-08-20T05:10:35;57676.76;;;-140.43;66.86
30714;BME280;17465;47.934;33.430;2023-08-20T05:13:06;57692.65;;;-140.43;63.96
30714;BME280;17465;47.934;33.430;2023-08-20T05:15:36;57732.89;;;-140.43;61.10
30714;BME280;17465;47.934;33.430;2023-08-20T05:18:07;57720.19;;;-140.43;62.20
30714;BME280;17465;47.934;33.430;2023-08-20T05:20:39;57703.24;;;-140.43;60.88
30714;BME280;17465;47.934;33.430;2023-08-20T05:23:09;57703.24;;;-140.43;60.88
30714;BME280;17465;47.934;33.430;2023-08-20T05:25:39;57738.19;;;-140.43;60.56
30714;BME280;17465;47.934;33.430;2023-08-20T05:28:10;57779.50;;;-140.43;60.05
30714;BME280;17465;47.934;33.430;2023-08-20T05:30:40;57778.44;;;-140.43;57.48
30714;BME280;17465;47.934;33.430;2023-08-20T05:33:17;57813.39;;;-140.43;57.83
30714;BME280;17465;47.934;33.430;2023-08-20T05:35:51;57808.10;;;-140.43;61.07
30714;BME280;17465;47.934;33.430;2023-08-20T05:38:24;57798.57;;;-140.43;60.81
30714;BME280;17465;47.934;33.430;2023-08-20T05:40:54;57798.57;;;-140.43;60.81
30714;BME280;17465;47.934;33.430;2023-08-20T05:43:25;57818.69;;;-140.43;57.60
30714;BME280;17465;47.934;33.430;2023-08-20T05:45:55;57829.29;;;-140.43;55.19
30714;BME280;17465;47.934;33.430;2023-08-20T05:48:25;57829.29;;;-140.43;55.19
30714;BME280;17465;47.934;33.430;2023-08-20T05:50:56;57845.17;;;-140.43;55.88
30714;BME280;17465;47.934;33.430;2023-08-20T05:53:26;57899.19;;;-140.43;54.19
30714;BME280;17465;47.934;33.430;2023-08-20T05:55:57;57899.19;;;-140.43;54.19
30714;BME280;17465;47.934;33.430;2023-08-20T05:58:27;57900.25;;;-140.43;52.88
30714;BME280;17465;47.934;33.430;2023-08-20T06:01:01;57861.06;;;-140.43;50.67
30714;BME280;17465;47.934;33.430;2023-08-20T06:03:31;57884.36;;;-140.43;50.94
30714;BME280;17465;47.934;33.430;2023-08-20T06:06:02;57934.15;;;-140.43;49.04
30714;BME280;17465;47.934;33.430;2023-08-20T06:08:34;57982.87;;;-140.43;48.23
30714;BME280;17465;47.934;33.430;2023-08-20T06:11:04;57982.87;;;-140.43;46.44
30714;BME280;17465;47.934;33.430;2023-08-20T06:13:35;57977.57;;;-140.43;45.04
30714;BME280;17465;47.934;33.430;2023-08-20T06:16:06;58083.50;;;-140.43;43.42
30714;BME280;17465;47.934;33.430;2023-08-20T06:21:30;58149.18;;;-140.43;41.25
30714;BME280;17465;47.934;33.430;2023-08-20T06:24:01;58149.18;;;-140.43;41.25
30714;BME280;17465;47.934;33.430;2023-08-20T06:26:43;58207.44;;;-140.43;39.68
30714;BME280;17465;47.934;33.430;2023-08-20T06:29:13;58262.53;;;-140.43;38.33
30714;BME280;17465;47.934;33.430;2023-08-20T06:31:44;58214.86;;;-140.43;38.89
30714;BME280;17465;47.934;33.430;2023-08-20T06:34:14;58286.89;;;-140.43;38.49
30714;BME280;17465;47.934;33.430;2023-08-20T06:36:44;58347.28;;;-140.43;38.20
30714;BME280;17465;47.934;33.430;2023-08-20T06:39:15;58333.51;;;-140.43;36.71
30714;BME280;17465;47.934;33.430;2023-08-20T06:41:45;58333.51;;;-140.43;36.71
30714;BME280;17465;47.934;33.430;2023-08-20T06:44:21;58434.15;;;-140.43;35.99
30714;BME280;17465;47.934;33.430;2023-08-20T06:46:51;58434.15;;;-140.43;35.99
30714;BME280;17465;47.934;33.430;2023-08-20T06:49:22;58428.85;;;-140.43;35.85
30714;BME280;17465;47.934;33.430;2023-08-20T06:51:54;58462.75;;;-140.43;36.48
30714;BME280;17465;47.934;33.430;2023-08-20T06:54:24;58432.03;;;-140.43;34.86
30714;BME280;17465;47.934;33.430;2023-08-20T06:56:55;58448.98;;;-140.43;35.87
30714;BME280;17465;47.934;33.430;2023-08-20T06:59:25;58490.30;;;-140.43;36.19
30714;BME280;17465;47.934;33.430;2023-08-20T07:01:55;58483.94;;;-140.43;36.05
30714;BME280;17465;47.934;33.430;2023-08-20T07:04:25;58483.94;;;-140.43;36.05
30714;BME280;17465;47.934;33.430;2023-08-20T07:06:56;58519.96;;;-140.43;35.88
30714;BME280;17465;47.934;33.430;2023-08-20T07:09:27;58539.03;;;-140.43;35.68
30714;BME280;17465;47.934;33.430;2023-08-20T07:11:57;58539.03;;;-140.43;35.68
30714;BME280;17465;47.934;33.430;2023-08-20T07:14:27;58577.17;;;-140.43;36.01
30714;BME280;17465;47.934;33.430;2023-08-20T07:16:57;58598.36;;;-140.43;34.98
30714;BME280;17465;47.934;33.430;2023-08-20T07:19:28;58596.24;;;-140.43;36.88
30714;BME280;17465;47.934;33.430;2023-08-20T07:21:59;58617.43;;;-140.43;34.40
30714;BME280;17465;47.934;33.430;2023-08-20T07:24:29;58583.53;;;-140.43;34.28
30714;BME280;17465;47.934;33.430;2023-08-20T07:27:02;58641.80;;;-140.43;33.83
30714;BME280;17465;47.934;33.430;2023-08-20T07:30:15;58582.47;;;-140.43;33.02
30714;BME280;17465;47.934;33.430;2023-08-20T07:32:39;58701.13;;;-140.43;33.21
30714;BME280;17465;47.934;33.430;2023-08-20T07:35:09;58620.61;;;-140.43;32.81
30714;BME280;17465;47.934;33.430;2023-08-20T07:37:41;58783.77;;;-140.43;32.03
30714;BME280;17465;47.934;33.430;2023-08-20T07:40:13;58745.62;;;-140.43;31.90
30714;BME280;17465;47.934;33.430;2023-08-20T07:42:45;58715.96;;;-140.43;33.00
30714;BME280;17465;47.934;33.430;2023-08-20T07:45:15;58737.15;;;-140.43;31.47
30714;BME280;17465;47.934;33.430;2023-08-20T07:47:45;58800.72;;;-140.43;32.57
30714;BME280;17465;47.934;33.430;2023-08-20T07:50:16;58800.72;;;-140.43;32.57
30714;BME280;17465;47.934;33.430;2023-08-20T07:52:53;58794.36;;;-140.43;31.28
30714;BME280;17465;47.934;33.430;2023-08-20T07:55:23;58755.16;;;-140.43;30.66
30714;BME280;17465;47.934;33.430;2023-08-20T07:58:01;58814.49;;;-140.43;30.91
30714;BME280;17465;47.934;33.430;2023-08-20T08:00:52;58846.28;;;-140.43;30.81
30714;BME280;17465;47.934;33.430;2023-08-20T08:03:08;58798.60;;;-140.43;30.94
30714;BME280;17465;47.934;33.430;2023-08-20T08:05:51;58845.22;;;-140.43;30.65
30714;BME280;17465;47.934;33.430;2023-08-20T08:14:46;58879.13;;;-140.43;28.57
30714;BME280;17465;47.934;33.430;2023-08-20T08:27:49;58903.50;;;-140.43;28.12
30714;BME280;17465;47.934;33.430;2023-08-20T08:33:31;58958.59;;;-140.43;26.81
30714;BME280;17465;47.934;33.430;2023-08-20T08:36:07;59040.18;;;-140.43;27.04
30714;BME280;17465;47.934;33.430;2023-08-20T08:38:43;59040.18;;;-140.43;27.04
30714;BME280;17465;47.934;33.430;2023-08-20T08:41:14;59058.19;;;-140.43;27.25
30714;BME280;17465;47.934;33.430;2023-08-20T08:43:46;59058.19;;;-140.43;27.25
30714;BME280;17465;47.934;33.430;2023-08-20T08:49:46;59155.68;;;-140.43;25.71
30714;BME280;17465;47.934;33.430;2023-08-20T08:52:40;59134.48;;;-140.43;26.08
30714;BME280;17465;47.934;33.430;2023-08-20T08:55:18;59134.48;;;-140.43;26.08
30714;BME280;17465;47.934;33.430;2023-08-20T09:00:35;56101.09;;;-140.43;26.62
30714;BME280;17465;47.934;33.430;2023-08-20T09:03:05;59099.52;;;-140.43;26.49
30714;BME280;17465;47.934;33.430;2023-08-20T09:06:30;59204.42;;;-140.43;24.83
30714;BME280;17465;47.934;33.430;2023-08-20T09:08:29;59162.04;;;-140.43;26.28
30714;BME280;17465;47.934;33.430;2023-08-20T09:11:22;59162.04;;;-140.43;26.28
30714;BME280;17465;47.934;33.430;2023-08-20T09:13:53;59197.00;;;-140.43;25.60
30714;BME280;17465;47.934;33.430;2023-08-20T09:16:32;59197.00;;;-140.43;25.60
30714;BME280;17465;47.934;33.430;2023-08-20T09:19:04;59134.48;;;-140.43;26.28
30714;BME280;17465;47.934;33.430;2023-08-20T09:21:52;59198.06;;;-140.43;25.95
30714;BME280;17465;47.934;33.430;2023-08-20T09:24:28;59198.06;;;-140.43;25.95
30714;BME280;17465;47.934;33.430;2023-08-20T09:27:05;59203.36;;;-140.43;25.56
30714;BME280;17465;47.934;33.430;2023-08-20T09:29:46;59437.55;;;-140.43;25.24
30714;BME280;17465;47.934;33.430;2023-08-20T09:32:23;59221.37;;;-140.43;26.28
30714;BME280;17465;47.934;33.430;2023-08-20T09:34:50;59224.55;;;-140.43;25.32
30714;BME280;17465;47.934;33.430;2023-08-20T09:37:22;59264.82;;;-140.43;25.21
30714;BME280;17465;47.934;33.430;2023-08-20T09:39:53;59264.82;;;-140.43;25.21
30714;BME280;17465;47.934;33.430;2023-08-20T09:42:25;59343.23;;;-140.43;25.52
30714;BME280;17465;47.934;33.430;2023-08-20T09:44:55;59343.23;;;-140.43;25.52
30714;BME280;17465;47.934;33.430;2023-08-20T09:47:27;59282.83;;;-140.43;24.89
30714;BME280;17465;47.934;33.430;2023-08-20T09:50:03;59308.27;;;-140.43;24.95
30714;BME280;17465;47.934;33.430;2023-08-20T09:52:44;59350.65;;;-140.43;24.45
30714;BME280;17465;47.934;33.430;2023-08-20T09:55:20;59328.40;;;-140.43;23.80
30714;BME280;17465;47.934;33.430;2023-08-20T09:57:52;59431.19;;;-140.43;22.93
30714;BME280;17465;47.934;33.430;2023-08-20T10:00:21;59400.46;;;-140.43;24.27
30714;BME280;17465;47.934;33.430;2023-08-20T10:02:54;59314.62;;;-140.43;23.11
30714;BME280;17465;47.934;33.430;2023-08-20T10:05:25;59388.80;;;-140.43;24.55
30714;BME280;17465;47.934;33.430;2023-08-20T10:08:01;59388.80;;;-140.43;24.55
30714;BME280;17465;47.934;33.430;2023-08-20T10:10:31;59357.01;;;-140.43;24.92
30714;BME280;17465;47.934;33.430;2023-08-20T10:13:07;59466.16;;;-140.43;24.34
30714;BME280;17465;47.934;33.430;2023-08-20T10:15:38;59368.67;;;-140.43;23.69
30714;BME280;17465;47.934;33.430;2023-08-20T10:18:10;59412.12;;;-140.43;24.67
30714;BME280;17465;47.934;33.430;2023-08-20T10:20:50;59365.49;;;-140.43;23.90
30714;BME280;17465;47.934;33.430;2023-08-20T10:23:25;59421.65;;;-140.43;23.37
30714;BME280;17465;47.934;33.430;2023-08-20T10:26:07;59519.15;;;-140.43;22.72
30714;BME280;17465;47.934;33.430;2023-08-20T10:28:40;59484.18;;;-140.43;23.50
30714;BME280;17465;47.934;33.430;2023-08-20T10:31:16;59471.46;;;-140.43;23.82
30714;BME280;17465;47.934;33.430;2023-08-20T10:33:55;59518.09;;;-140.43;22.73
30714;BME280;17465;47.934;33.430;2023-08-20T10:36:36;59543.52;;;-140.43;20.78
30714;BME280;17465;47.934;33.430;2023-08-20T10:39:19;59567.90;;;-140.43;21.90
30714;BME280;17465;47.934;33.430;2023-08-20T10:41:41;59355.95;;;-140.43;23.16
30714;BME280;17465;47.934;33.430;2023-08-20T10:44:14;59489.48;;;-140.43;23.07
30714;BME280;17465;47.934;33.430;2023-08-20T10:46:51;59489.48;;;-140.43;23.07
30714;BME280;17465;47.934;33.430;2023-08-20T10:49:21;59461.92;;;-140.43;21.67
30714;BME280;17465;47.934;33.430;2023-08-20T10:51:52;59363.37;;;-140.43;21.76
30714;BME280;17465;47.934;33.430;2023-08-20T10:54:22;59714.14;;;-140.43;21.67
30714;BME280;17465;47.934;33.430;2023-08-20T10:56:57;59714.14;;;-140.43;21.67
30714;BME280;17465;47.934;33.430;2023-08-20T10:59:29;59253.16;;;-140.43;24.57
30714;BME280;17465;47.934;33.430;2023-08-20T11:02:01;58981.90;;;-140.43;26.44
30714;BME280;17465;47.934;33.430;2023-08-20T11:04:32;58981.90;;;-140.43;26.44
30714;BME280;17465;47.934;33.430;2023-08-20T11:07:03;58874.89;;;-140.43;28.43
30714;BME280;17465;47.934;33.430;2023-08-20T11:09:35;58911.97;;;-140.43;25.17
30714;BME280;17465;47.934;33.430;2023-08-20T11:12:06;59168.39;;;-140.43;23.21
30714;BME280;17465;47.934;33.430;2023-08-20T11:14:59;59168.39;;;-140.43;23.21
30714;BME280;17465;47.934;33.430;2023-08-20T11:17:24;59246.80;;;-140.43;24.92
30714;BME280;17465;47.934;33.430;2023-08-20T11:19:55;59514.91;;;-140.43;22.57
30714;BME280;17465;47.934;33.430;2023-08-20T11:22:27;59532.93;;;-140.43;23.74
30714;BME280;17465;47.934;33.430;2023-08-20T11:24:58;59532.93;;;-140.43;23.74
30714;BME280;17465;47.934;33.430;2023-08-20T11:27:34;59592.27;;;-140.43;21.72
30714;BME280;17465;47.934;33.430;2023-08-20T11:30:06;59482.06;;;-140.43;21.54
30714;BME280;17465;47.934;33.430;2023-08-20T11:32:37;59482.06;;;-140.43;21.54
30714;BME280;17465;47.934;33.430;2023-08-20T11:35:08;59553.06;;;-140.43;22.27
30714;BME280;17465;47.934;33.430;2023-08-20T11:37:38;59553.06;;;-140.43;22.27
30714;BME280;17465;47.934;33.430;2023-08-20T11:40:12;59505.37;;;-140.43;21.54
30714;BME280;17465;47.934;33.430;2023-08-20T11:42:44;59461.92;;;-140.43;21.66
30714;BME280;17465;47.934;33.430;2023-08-20T11:45:16;59523.39;;;-140.43;21.43
30714;BME280;17465;47.934;33.430;2023-08-20T11:47:47;59523.39;;;-140.43;21.43
30714;BME280;17465;47.934;33.430;2023-08-20T11:50:20;59680.23;;;-140.43;20.14
30714;BME280;17465;47.934;33.430;2023-08-20T11:52:53;59584.85;;;-140.43;21.57
30714;BME280;17465;47.934;33.430;2023-08-20T11:55:25;59584.85;;;-140.43;21.57
30714;BME280;17465;47.934;33.430;2023-08-20T11:58:19;59484.18;;;-140.43;22.28
30714;BME280;17465;47.934;33.430;2023-08-20T12:00:54;59510.67;;;-140.43;21.46
30714;BME280;17465;47.934;33.430;2023-08-20T12:03:46;59576.37;;;-140.43;21.18
30714;BME280;17465;47.934;33.430;2023-08-20T12:09:31;59624.06;;;-140.43;20.83
30714;BME280;17465;47.934;33.430;2023-08-20T12:12:02;59584.85;;;-140.43;19.92
30714;BME280;17465;47.934;33.430;2023-08-20T12:14:33;59584.85;;;-140.43;19.90
30714;BME280;17465;47.934;33.430;2023-08-20T12:17:04;59603.93;;;-140.43;22.03
30714;BME280;17465;47.934;33.430;2023-08-20T12:19:37;59524.45;;;-140.43;20.70
30714;BME280;17465;47.934;33.430;2023-08-20T12:22:08;59398.34;;;-140.43;23.27
30714;BME280;17465;47.934;33.430;2023-08-20T12:24:39;59228.79;;;-140.43;23.33
30714;BME280;17465;47.934;33.430;2023-08-20T12:27:11;59045.48;;;-140.43;25.68
30714;BME280;17465;47.934;33.430;2023-08-20T12:29:41;58982.96;;;-140.43;27.42
30714;BME280;17465;47.934;33.430;2023-08-20T12:32:12;58987.20;;;-140.43;25.66
30714;BME280;17465;47.934;33.430;2023-08-20T12:34:42;58987.20;;;-140.43;25.66
30714;BME280;17465;47.934;33.430;2023-08-20T12:37:12;59121.77;;;-140.43;26.48
30714;BME280;17465;47.934;33.430;2023-08-20T12:39:43;59249.98;;;-140.43;24.79
30714;BME280;17465;47.934;33.430;2023-08-20T12:42:13;59260.58;;;-140.43;23.69
30714;BME280;17465;47.934;33.430;2023-08-20T12:44:43;59471.46;;;-140.43;22.78
30714;BME280;17465;47.934;33.430;2023-08-20T12:47:13;59403.64;;;-140.43;21.86
30714;BME280;17465;47.934;33.430;2023-08-20T12:49:45;59292.37;;;-140.43;23.07
30714;BME280;17465;47.934;33.430;2023-08-20T12:52:16;59440.73;;;-140.43;22.36
30714;BME280;17465;47.934;33.430;2023-08-20T12:54:46;59337.94;;;-140.43;23.12
30714;BME280;17465;47.934;33.430;2023-08-20T12:57:16;59350.65;;;-140.43;22.77
30714;BME280;17465;47.934;33.430;2023-08-20T12:59:56;59609.23;;;-140.43;23.02
30714;BME280;17465;47.934;33.430;2023-08-20T13:02:45;59609.23;;;-140.43;23.02
30714;BME280;17465;47.934;33.430;2023-08-20T13:05:46;59588.04;;;-140.43;20.89
30714;BME280;17465;47.934;33.430;2023-08-20T13:08:18;59408.94;;;-140.43;21.35
30714;BME280;17465;47.934;33.430;2023-08-20T13:10:56;59637.84;;;-140.43;21.28
30714;BME280;17465;47.934;33.430;2023-08-20T13:13:34;59486.30;;;-140.43;21.83
30714;BME280;17465;47.934;33.430;2023-08-20T13:16:07;59636.78;;;-140.43;21.37
30714;BME280;17465;47.934;33.430;2023-08-20T13:18:37;59636.78;;;-140.43;21.37
30714;BME280;17465;47.934;33.430;2023-08-20T13:21:09;59618.77;;;-140.43;21.20
30714;BME280;17465;47.934;33.430;2023-08-20T13:23:41;59662.21;;;-140.43;20.48
30714;BME280;17465;47.934;33.430;2023-08-20T13:26:12;59662.21;;;-140.43;20.48
30714;BME280;17465;47.934;33.430;2023-08-20T13:28:54;59652.68;;;-140.43;20.45
30714;BME280;17465;47.934;33.430;2023-08-20T13:31:25;59598.63;;;-140.43;21.27
30714;BME280;17465;47.934;33.430;2023-08-20T13:33:55;59661.16;;;-140.43;21.14
30714;BME280;17465;47.934;33.430;2023-08-20T13:36:26;59597.57;;;-140.43;21.09
30714;BME280;17465;47.934;33.430;2023-08-20T13:38:56;59456.62;;;-140.43;20.57
30714;BME280;17465;47.934;33.430;2023-08-20T13:41:28;59456.62;;;-140.43;20.57
30714;BME280;17465;47.934;33.430;2023-08-20T13:44:00;59533.98;;;-140.43;20.62